• Join FlightAware (Why Join?)
  • Login
  • US Flag 
12:25AM EST


 

Airport Tracker/Info


-or-


 

Live Flight TrackerFlight Track Log ✈ AAL963 ✈ 23-Aug-2013 ✈ KDFW - SBGR / GRU

Flight Track Log - Related Links

Times and Time Zones

All times are in EDT time to prevent confusion due to time zone crossing. See the AAL963 flight status page for this flight to view local times or setup timezone preferences in your user account.

Time Position Orientation Groundspeed Altitude Reporting Facility
EDT Latitude Longitude Course Direction KTS MPH feet Rate Location/Type
09:17PM 32.9320 -97.0280 North 193 222 1,900  Level FlightAware
09:17PM 32.9500 -97.0250 North 207 238 2,200 660 Climbing FlightAware
09:17PM 32.9720 -97.0210 North 233 268 2,400 480 Climbing FlightAware
09:18PM 32.9900 -97.0180 North 256 295 2,500 1,020 Climbing FlightAware
09:18PM 33.0130 -97.0140 North 268 308 3,000 1,680 Climbing FlightAware
09:18PM 33.0390 -97.0090 North 281 323 3,600 2,040 Climbing FlightAware
09:19PM 33.0500 -97.0060 13° North 280 322 4,000 2,100 Climbing FlightAware
09:19PM 33.0580 -97.0010 28° Northeast 280 322 4,200 1,860 Climbing FlightAware
09:19PM 33.0670 -96.9940 33° Northeast 281 323 4,500 2,460 Climbing FlightAware
09:19PM 33.0710 -96.9880 51° Northeast 280 322 4,700 2,220 Climbing FlightAware
09:19PM 33.0790 -96.9730 58° Northeast 277 319 5,100 1,620 Climbing FlightAware
09:19PM 33.0810 -96.9620 78° East 277 319 5,300 1,680 Climbing FlightAware
09:19PM 33.0810 -96.9540 90° East 276 318 5,500 2,760 Climbing FlightAware
09:20PM 33.0740 -96.9210 104° East 273 314 6,500 2,460 Climbing FlightAware
09:20PM 33.0610 -96.8870 115° Southeast 278 320 7,400 2,160 Climbing FlightAware
09:20PM 33.0520 -96.8600 112° Southeast 282 325 8,100 2,100 Climbing FlightAware
09:21PM 33.0400 -96.8330 118° Southeast 282 325 8,800 2,220 Climbing FlightAware
09:21PM 33.0340 -96.8230 126° Southeast 284 327 9,100 2,280 Climbing FlightAware
09:21PM 33.0280 -96.8170 140° Southeast 287 330 9,300 1,500 Climbing FlightAware
09:21PM 33.0050 -96.7990 147° Southeast 300 345 9,800 1,800 Climbing FlightAware
09:22PM 32.9600 -96.7630 146° Southeast 310 357 11,100 1,800 Climbing FlightAware
09:22PM 32.9290 -96.7480 158° South 332 382 11,600 1,020 Climbing FlightAware
09:23PM 32.8710 -96.7530 184° South 374 430 12,100 1,320 Climbing FlightAware
09:23PM 32.8130 -96.7600 186° South 391 450 13,100 1,860 Climbing FlightAware
09:24PM 32.7540 -96.7540 175° South 401 461 14,200 2,220 Climbing FlightAware
09:25PM 32.6810 -96.7380 170° South 407 468 15,800 2,160 Climbing FlightAware
09:25PM 32.6140 -96.7250 171° South 420 483 16,900 1,920 Climbing FlightAware
09:26PM 32.5500 -96.7130 171° South 427 491 18,000 1,740 Climbing FlightAware
09:26PM 32.4800 -96.7000 171° South 438 504 18,900 1,680 Climbing FlightAware
09:27PM 32.4110 -96.6870 171° South 444 511 20,000 1,800 Climbing FlightAware
09:27PM 32.3772 -96.6801 170° South 449 517 20,400 1,860 Climbing FlightAware ADS-B
09:28PM 32.3027 -96.6657 171° South 454 522 21,600 1,860 Climbing FlightAware ADS-B
09:28PM 32.2397 -96.6535 171° South 459 528 22,500 1,680 Climbing FlightAware ADS-B
09:29PM 32.1696 -96.6398 171° South 464 534 23,400 1,680 Climbing FlightAware ADS-B
09:29PM 32.0924 -96.6247 171° South 469 540 24,500 1,620 Climbing FlightAware ADS-B
09:30PM 31.9553 -96.5983 171° South 477 549 26,100 1,380 Climbing FlightAware ADS-B
09:31PM 31.8177 -96.5718 171° South 490 564 27,500 1,320 Climbing FlightAware ADS-B
09:33PM 31.6091 -96.5318 171° South 505 581 29,500 1,320 Climbing FlightAware ADS-B
09:34PM 31.5381 -96.5168 170° South 504 580 30,300 1,740 Climbing FlightAware ADS-B
09:34PM 31.5010 -96.5062 166° South 498 573 30,900 2,040 Climbing FlightAware ADS-B
09:34PM 31.4352 -96.4820 163° South 490 564 31,900 1,500 Climbing FlightAware ADS-B
09:35PM 31.3659 -96.4272 139° Southeast 489 563 32,600 1,140 Climbing FlightAware ADS-B
09:35PM 31.3466 -96.4011 131° Southeast 487 560 32,900 540 Climbing FlightAware ADS-B
09:36PM 31.3041 -96.3388 129° Southeast 484 557 33,000 120 Climbing FlightAware ADS-B
09:36PM 31.2828 -96.3064 128° Southeast 486 559 33,000  Level FlightAware ADS-B
09:36PM 31.2723 -96.2871 122° Southeast 487 560 33,000  Level FlightAware ADS-B
09:36PM 31.2608 -96.2615 118° Southeast 488 562 33,000  Level FlightAware ADS-B
09:40PM 31.0597 -95.7485 115° Southeast 494 568 33,000  Level FlightAware ADS-B
09:40PM 31.0309 -95.6754 115° Southeast 494 568 33,000  Level FlightAware ADS-B
09:41PM 31.0144 -95.6336 115° Southeast 495 570 33,000  Level FlightAware ADS-B
09:41PM 30.9799 -95.5731 127° Southeast 495 570 33,000  Level FlightAware ADS-B
09:42PM 30.9307 -95.5166 135° Southeast 495 570 33,000  Level FlightAware ADS-B
09:43PM 30.8193 -95.4012 138° Southeast 494 568 33,000  Level FlightAware ADS-B
09:43PM 30.7675 -95.3478 138° Southeast 493 567 33,000  Level FlightAware ADS-B
09:44PM 30.6636 -95.2404 138° Southeast 495 570 33,000  Level FlightAware ADS-B
09:45PM 30.6120 -95.1869 138° Southeast 495 570 33,000  Level FlightAware ADS-B
09:46PM 30.5088 -95.0804 138° Southeast 496 571 33,000  Level FlightAware ADS-B
09:47PM 30.4044 -94.9733 139° Southeast 496 571 33,000  Level FlightAware ADS-B
09:47PM 30.3523 -94.9197 138° Southeast 497 572 33,000  Level FlightAware ADS-B
09:49PM 30.1956 -94.7596 139° Southeast 499 574 33,000  Level FlightAware ADS-B
09:49PM 30.1434 -94.7065 139° Southeast 500 575 33,000  Level FlightAware ADS-B
09:50PM 30.0908 -94.6529 139° Southeast 501 577 33,000  Level FlightAware ADS-B
09:50PM 30.0379 -94.5993 139° Southeast 501 577 33,000  Level FlightAware ADS-B
09:51PM 29.9858 -94.5463 139° Southeast 502 578 33,000  Level FlightAware ADS-B
09:51PM 29.9332 -94.4931 139° Southeast 502 578 33,000  Level FlightAware ADS-B
09:52PM 29.8269 -94.3855 139° Southeast 507 583 33,000  Level FlightAware ADS-B
09:54PM 29.6653 -94.2229 139° Southeast 509 586 33,000  Level FlightAware ADS-B
09:54PM 29.6122 -94.1696 139° Southeast 508 585 33,000  Level FlightAware ADS-B
09:55PM 29.5584 -94.1156 139° Southeast 508 585 33,000  Level FlightAware ADS-B
09:55PM 29.5036 -94.0608 139° Southeast 506 582 33,000  Level FlightAware ADS-B
09:56PM 29.4501 -94.0102 141° Southeast 504 580 33,000  Level FlightAware ADS-B
09:56PM 29.3931 -93.9637 145° Southeast 502 578 33,000  Level FlightAware ADS-B
09:57PM 29.3392 -93.9211 145° Southeast 503 579 33,000  Level FlightAware ADS-B
09:57PM 29.2798 -93.8787 148° Southeast 503 579 33,000  Level FlightAware ADS-B
09:58PM 29.2193 -93.8360 148° Southeast 502 578 33,000  Level FlightAware ADS-B
09:59PM 29.0921 -93.7459 148° Southeast 503 579 33,000  Level FlightAware ADS-B
09:59PM 29.0302 -93.7022 148° Southeast 503 579 33,000  Level FlightAware ADS-B
10:00PM 28.9619 -93.6536 148° Southeast 503 579 33,000  Level Houston Center
10:01PM 28.8406 -93.5556 145° Southeast 500 575 33,000 -60 Level Houston Center
10:02PM 28.7447 -93.4556 138° Southeast 503 579 32,900  Descending Houston Center
10:03PM 28.6408 -93.3531 139° Southeast 497 572 33,000  Climbing Houston Center
10:04PM 28.5278 -93.2444 140° Southeast 495 570 33,000  Level Houston Center
10:05PM 28.4303 -93.1525 140° Southeast 496 571 33,000 -60 Level Houston Center
10:06PM 28.3042 -93.0308 140° Southeast 496 571 32,900 -60 Descending Houston Center
10:07PM 28.1986 -92.9278 139° Southeast 500 575 32,900  Level Houston Center
10:08PM 28.0922 -92.8264 140° Southeast 501 577 32,900  Level Houston Center
10:09PM 27.9856 -92.7225 139° Southeast 506 582 33,000  Climbing Houston Center
10:10PM 27.8797 -92.6214 140° Southeast 502 578 33,000 -60 Level Houston Center
10:11PM 27.7736 -92.5206 140° Southeast 500 575 32,900 -60 Descending Houston Center
10:12PM 27.6681 -92.4189 140° Southeast 500 575 32,900  Level Houston Center
10:13PM 27.5631 -92.3183 140° Southeast 497 572 33,000  Climbing Houston Center
10:14PM 27.4581 -92.2164 139° Southeast 498 573 32,900  Descending Houston Center
10:15PM 27.3519 -92.1197 141° Southeast 493 567 33,000  Climbing Houston Center
10:16PM 27.2428 -92.0253 142° Southeast 494 568 33,000  Level Houston Center
10:18PM 27.1249 -91.8998 144° Southeast  Level FlightAware Approximate
10:25PM 26.3556 -91.2878 144° Southeast  Level FlightAware Approximate
10:26PM 26.2456 -91.2008 145° Southeast  Level FlightAware Approximate
10:27PM 26.1356 -91.1140 145° Southeast  Level FlightAware Approximate
10:28PM 26.0255 -91.0274 145° Southeast  Level FlightAware Approximate
10:29PM 25.9154 -90.9409 145° Southeast  Level FlightAware Approximate
10:30PM 25.8052 -90.8546 145° Southeast  Level FlightAware Approximate
10:31PM 25.6949 -90.7685 145° Southeast  Level FlightAware Approximate
10:32PM 25.5846 -90.6825 145° Southeast  Level FlightAware Approximate
10:33PM 25.4742 -90.5967 145° Southeast  Level FlightAware Approximate
10:34PM 25.3637 -90.5113 145° Southeast  Level FlightAware Approximate
10:35PM 25.2531 -90.4259 145° Southeast  Level FlightAware Approximate
10:36PM 25.1425 -90.3408 145° Southeast  Level FlightAware Approximate
10:37PM 25.0318 -90.2558 145° Southeast  Level FlightAware Approximate
10:38PM 24.9211 -90.1710 145° Southeast  Level FlightAware Approximate
10:39PM 24.8103 -90.0863 145° Southeast  Level FlightAware Approximate
10:40PM 24.6995 -90.0017 145° Southeast  Level FlightAware Approximate
10:41PM 24.5886 -89.9173 145° Southeast  Level FlightAware Approximate
10:42PM 24.4795 -89.8306 146° Southeast  Level FlightAware Approximate
10:43PM 24.3674 -89.7484 146° Southeast  Level FlightAware Approximate
10:44PM 24.2552 -89.6663 146° Southeast  Level FlightAware Approximate
10:45PM 24.1430 -89.5844 146° Southeast  Level FlightAware Approximate
10:46PM 24.0311 -89.5021 145° Southeast  Level FlightAware Approximate
10:47PM 23.9209 -89.4171 145° Southeast  Level FlightAware Approximate
10:48PM 23.8107 -89.3322 145° Southeast  Level FlightAware Approximate
10:49PM 23.7004 -89.2475 145° Southeast  Level FlightAware Approximate
10:50PM 23.5898 -89.1633 146° Southeast  Level FlightAware Approximate
10:50PM 23.4460 -89.6380 146° Southeast 486 559 33,000  Level FlightAware
10:51PM 23.4783 -89.0806 146° Southeast  Level FlightAware Approximate
10:51PM 23.3980 -89.5820 133° Southeast 486 559 33,000  Level FlightAware
10:51PM 23.3350 -89.5110 134° Southeast 485 558 33,000  Level FlightAware
10:52PM 23.2640 -89.4300 134° Southeast 486 559 33,000  Level FlightAware
10:52PM 23.2280 -89.3650 121° Southeast 487 560 33,000  Level FlightAware
10:53PM 23.1880 -89.2950 122° Southeast 486 559 33,000  Level FlightAware
10:54PM 23.1480 -89.2230 121° Southeast 486 559 33,000  Level FlightAware
10:54PM 23.0990 -89.1360 121° Southeast 485 558 33,000  Level FlightAware
10:55PM 23.0580 -89.0620 121° Southeast 485 558 33,000  Level FlightAware
10:55PM 23.0150 -88.9920 124° Southeast 485 558 33,000  Level FlightAware
10:56PM 22.9520 -88.9280 137° Southeast 485 558 33,000  Level FlightAware
10:57PM 22.9030 -88.8800 138° Southeast 486 559 33,000  Level FlightAware
10:57PM 22.8400 -88.8180 138° Southeast 485 558 33,000  Level FlightAware
10:58PM 22.7800 -88.7600 138° Southeast 484 557 33,000  Level FlightAware
10:58PM 22.7280 -88.7090 138° Southeast 483 556 33,000  Level FlightAware
10:59PM 22.6640 -88.6460 138° Southeast 481 554 33,000  Level FlightAware
10:59PM 22.6080 -88.5910 138° Southeast 482 555 33,000  Level FlightAware
11:00PM 22.5570 -88.5410 138° Southeast 482 555 33,000  Level FlightAware
11:01PM 22.4870 -88.4710 137° Southeast 483 556 33,000  Level FlightAware
11:01PM 22.4360 -88.4190 137° Southeast 483 556 33,000  Level FlightAware
11:02PM 22.3870 -88.3710 138° Southeast 484 557 33,000  Level FlightAware
11:02PM 22.3320 -88.3150 137° Southeast 484 557 33,000  Level FlightAware
11:03PM 22.2700 -88.2530 137° Southeast 483 556 33,000  Level FlightAware
11:04PM 22.2070 -88.1890 137° Southeast 483 556 33,000  Level FlightAware
11:04PM 22.1450 -88.1280 138° Southeast 483 556 33,000  Level FlightAware
11:05PM 22.0760 -88.0850 150° Southeast 483 556 33,000  Level FlightAware
11:05PM 22.0090 -88.0450 151° Southeast 484 557 33,000  Level FlightAware
11:06PM 21.9350 -88.0000 151° Southeast 485 558 33,000  Level FlightAware
11:07PM 21.8680 -87.9600 151° Southeast 485 558 33,000  Level FlightAware
11:07PM 21.7910 -87.9130 150° Southeast 484 557 33,000  Level FlightAware
11:08PM 21.7360 -87.8640 140° Southeast 487 560 33,000  Level FlightAware
11:08PM 21.6810 -87.7820 126° Southeast 489 563 33,000  Level FlightAware
11:09PM 21.6280 -87.7000 125° Southeast 489 563 33,000  Level FlightAware
11:10PM 21.5800 -87.6250 125° Southeast 488 562 33,000  Level FlightAware
11:10PM 21.5330 -87.5530 125° Southeast 487 560 33,000  Level FlightAware
11:11PM 21.4850 -87.4800 125° Southeast 487 560 33,000  Level FlightAware
11:12PM 21.4370 -87.4110 127° Southeast 487 560 33,000  Level FlightAware
11:12PM 21.3890 -87.3540 132° Southeast 488 562 33,000  Level FlightAware
11:13PM 21.3310 -87.2920 135° Southeast 488 562 33,000  Level FlightAware
11:13PM 21.2730 -87.2290 135° Southeast 489 563 33,000  Level FlightAware
11:14PM 21.2230 -87.1740 134° Southeast 488 562 33,000  Level FlightAware
11:14PM 21.1660 -87.1130 135° Southeast 486 559 33,000  Level FlightAware
11:15PM 21.1070 -87.0500 135° Southeast 486 559 33,000  Level FlightAware
11:16PM 21.0510 -86.9890 135° Southeast 487 560 33,000  Level FlightAware
11:16PM 21.0010 -86.9350 135° Southeast 488 562 33,000  Level FlightAware
11:17PM 20.9430 -86.8730 135° Southeast 489 563 33,000  Level FlightAware
11:17PM 20.8840 -86.8100 135° Southeast 489 563 33,000  Level FlightAware
11:18PM 20.8300 -86.7510 134° Southeast 487 560 33,000  Level FlightAware
11:19PM 20.7730 -86.6900 135° Southeast 489 563 33,000  Level FlightAware
11:19PM 20.7160 -86.6290 135° Southeast 488 562 33,000  Level FlightAware
11:20PM 20.6640 -86.5730 135° Southeast 485 558 33,000  Level FlightAware
11:20PM 20.6120 -86.5170 135° Southeast 482 555 33,000  Level FlightAware
11:21PM 20.5520 -86.4530 135° Southeast 482 555 33,000  Level FlightAware
11:21PM 20.5050 -86.4040 136° Southeast 482 555 33,000  Level FlightAware
11:22PM 20.4250 -86.3160 134° Southeast 482 555 33,000  Level FlightAware
11:23PM 20.3610 -86.2470 135° Southeast 482 555 33,000  Level FlightAware
11:24PM 20.3140 -86.1940 133° Southeast 482 555 33,000  Level FlightAware
11:24PM 20.2370 -86.1190 138° Southeast 478 550 33,000  Level FlightAware
11:25PM 20.1800 -86.0580 135° Southeast 478 550 33,000  Level FlightAware
11:25PM 20.1240 -85.9980 135° Southeast 478 550 33,000  Level FlightAware
11:26PM 20.0700 -85.9410 135° Southeast 476 548 33,000  Level FlightAware
11:27PM 20.0130 -85.8830 136° Southeast 476 548 33,000  Level FlightAware
11:27PM 19.9530 -85.8270 139° Southeast 475 547 33,000  Level FlightAware
11:28PM 19.8990 -85.7750 138° Southeast 474 545 33,000  Level FlightAware
11:28PM 19.8420 -85.7210 138° Southeast 473 544 33,000  Level FlightAware
11:29PM 19.7830 -85.6660 139° Southeast 475 547 33,000  Level FlightAware
11:29PM 19.7240 -85.6100 138° Southeast 475 547 33,000  Level FlightAware
11:30PM 19.6690 -85.5580 138° Southeast 475 547 33,000  Level FlightAware
11:31PM 19.6110 -85.5050 139° Southeast 480 552 33,000  Level FlightAware
11:31PM 19.5470 -85.4450 139° Southeast 483 556 33,000  Level FlightAware
11:32PM 19.4860 -85.3880 139° Southeast 485 558 33,000  Level FlightAware
11:32PM 19.4330 -85.3380 138° Southeast 488 562 33,000  Level FlightAware
11:33PM 19.3730 -85.2820 139° Southeast 490 564 33,000  Level FlightAware
11:34PM 19.3090 -85.2220 138° Southeast 493 567 33,000  Level FlightAware
11:34PM 19.2590 -85.1760 139° Southeast 493 567 33,000  Level FlightAware
11:35PM 19.2050 -85.1240 138° Southeast 493 567 33,000  Level FlightAware
11:35PM 19.1530 -85.0740 138° Southeast 493 567 33,000  Level FlightAware
11:36PM 19.1010 -85.0250 138° Southeast 493 567 33,000  Level FlightAware
11:37PM 19.0490 -84.9750 138° Southeast 493 567 33,000  Level FlightAware
11:37PM 18.9960 -84.9250 138° Southeast 493 567 33,000  Level FlightAware
11:38PM 18.9440 -84.8750 138° Southeast 493 567 33,000  Level FlightAware
11:38PM 18.8920 -84.8260 138° Southeast 493 567 33,000  Level FlightAware
11:39PM 18.8400 -84.7760 138° Southeast 493 567 33,000  Level FlightAware
11:40PM 18.7880 -84.7270 138° Southeast 493 567 33,000  Level FlightAware
11:40PM 18.7360 -84.6780 138° Southeast 493 567 33,000  Level FlightAware
11:41PM 18.6850 -84.6290 138° Southeast 493 567 33,000  Level FlightAware
11:41PM 18.6330 -84.5790 138° Southeast 493 567 33,000  Level FlightAware
11:42PM 18.5810 -84.5300 138° Southeast 493 567 33,000  Level FlightAware
11:43PM 18.5290 -84.4810 138° Southeast 493 567 33,000  Level FlightAware
11:43PM 18.4770 -84.4310 138° Southeast 493 567 33,000  Level FlightAware
11:44PM 18.4250 -84.3820 138° Southeast 493 567 33,000  Level FlightAware
11:46PM 18.3099 -84.1618 125° Southeast  Level FlightAware Approximate
11:47PM 18.2331 -84.0452 125° Southeast  Level FlightAware Approximate
11:48PM 18.1562 -83.9286 125° Southeast  Level FlightAware Approximate
11:49PM 18.0793 -83.8120 125° Southeast  Level FlightAware Approximate
11:50PM 18.0023 -83.6957 125° Southeast  Level FlightAware Approximate
11:51PM 17.9191 -83.5848 135° Southeast  Level FlightAware Approximate
11:52PM 17.8230 -83.4855 135° Southeast  Level FlightAware Approximate
11:53PM 17.7268 -83.3864 136° Southeast  Level FlightAware Approximate
11:54PM 17.6305 -83.2873 136° Southeast  Level FlightAware Approximate
11:55PM 17.5342 -83.1884 136° Southeast  Level FlightAware Approximate
11:56PM 17.4378 -83.0895 136° Southeast  Level FlightAware Approximate
11:57PM 17.3400 -82.9923 139° Southeast  Level FlightAware Approximate
11:58PM 17.2385 -82.8994 139° Southeast  Level FlightAware Approximate
11:59PM 17.1369 -82.8067 139° Southeast  Level FlightAware Approximate
12:00AM 17.0352 -82.7140 139° Southeast  Level FlightAware Approximate
12:01AM 16.9335 -82.6215 139° Southeast  Level FlightAware Approximate
12:02AM 16.8318 -82.5290 139° Southeast  Level FlightAware Approximate
12:03AM 16.7300 -82.4367 139° Southeast  Level FlightAware Approximate
12:04AM 16.6282 -82.3444 139° Southeast  Level FlightAware Approximate
12:05AM 16.5263 -82.2523 139° Southeast  Level FlightAware Approximate
12:06AM 16.4236 -82.1613 141° Southeast  Level FlightAware Approximate
12:07AM 16.3184 -82.0735 141° Southeast  Level FlightAware Approximate
12:08AM 16.2131 -81.9857 141° Southeast  Level FlightAware Approximate
12:09AM 16.1078 -81.8981 141° Southeast  Level FlightAware Approximate
12:10AM 16.0025 -81.8105 141° Southeast  Level FlightAware Approximate
12:11AM 15.8971 -81.7231 141° Southeast  Level FlightAware Approximate
12:12AM 15.7917 -81.6357 141° Southeast  Level FlightAware Approximate
12:13AM 15.6862 -81.5484 141° Southeast  Level FlightAware Approximate
12:14AM 15.5807 -81.4613 141° Southeast  Level FlightAware Approximate
12:15AM 15.4752 -81.3742 141° Southeast  Level FlightAware Approximate
12:16AM 15.3697 -81.2871 142° Southeast  Level FlightAware Approximate
12:17AM 15.2641 -81.2002 142° Southeast  Level FlightAware Approximate
12:18AM 15.1585 -81.1134 142° Southeast  Level FlightAware Approximate
12:19AM 15.0528 -81.0267 142° Southeast  Level FlightAware Approximate
12:20AM 14.9473 -80.9398 141° Southeast  Level FlightAware Approximate
12:21AM 14.8420 -80.8527 141° Southeast  Level FlightAware Approximate
12:22AM 14.7366 -80.7657 141° Southeast  Level FlightAware Approximate
12:23AM 14.6330 -80.6803 141° Southeast  Level FlightAware Approximate
12:24AM 14.5293 -80.5950 141° Southeast  Level FlightAware Approximate
12:25AM 14.4256 -80.5098 141° Southeast  Level FlightAware Approximate
12:26AM 14.3219 -80.4246 141° Southeast  Level FlightAware Approximate
12:27AM 14.2182 -80.3395 142° Southeast  Level FlightAware Approximate
12:28AM 14.1144 -80.2545 142° Southeast  Level FlightAware Approximate
12:29AM 14.0106 -80.1695 142° Southeast  Level FlightAware Approximate
12:30AM 13.9067 -80.0847 142° Southeast  Level FlightAware Approximate
12:31AM 13.8028 -79.9999 142° Southeast  Level FlightAware Approximate
12:32AM 13.6989 -79.9152 142° Southeast  Level FlightAware Approximate
12:33AM 13.5950 -79.8306 142° Southeast  Level FlightAware Approximate
12:34AM 13.4911 -79.7460 142° Southeast  Level FlightAware Approximate
12:35AM 13.3871 -79.6615 142° Southeast  Level FlightAware Approximate
12:36AM 13.2831 -79.5771 142° Southeast  Level FlightAware Approximate
12:37AM 13.1790 -79.4928 142° Southeast  Level FlightAware Approximate
12:38AM 13.0750 -79.4085 142° Southeast  Level FlightAware Approximate
12:39AM 12.9709 -79.3243 142° Southeast  Level FlightAware Approximate
12:40AM 12.8668 -79.2402 142° Southeast  Level FlightAware Approximate
12:41AM 12.7626 -79.1561 142° Southeast  Level FlightAware Approximate
12:42AM 12.6584 -79.0721 142° Southeast  Level FlightAware Approximate
12:43AM 12.5542 -78.9882 142° Southeast  Level FlightAware Approximate
12:44AM 12.4500 -78.9043 142° Southeast  Level FlightAware Approximate
12:45AM 12.3458 -78.8205 142° Southeast  Level FlightAware Approximate
12:46AM 12.2415 -78.7368 142° Southeast  Level FlightAware Approximate
12:47AM 12.1372 -78.6532 142° Southeast  Level FlightAware Approximate
12:48AM 12.0329 -78.5696 142° Southeast  Level FlightAware Approximate
12:49AM 11.9285 -78.4861 142° Southeast  Level FlightAware Approximate
12:50AM 11.8241 -78.4026 142° Southeast  Level FlightAware Approximate
12:51AM 11.7197 -78.3192 142° Southeast  Level FlightAware Approximate
12:52AM 11.6153 -78.2359 142° Southeast  Level FlightAware Approximate
12:53AM 11.5108 -78.1526 142° Southeast  Level FlightAware Approximate
12:54AM 11.4064 -78.0694 142° Southeast  Level FlightAware Approximate
12:55AM 11.3019 -77.9863 142° Southeast  Level FlightAware Approximate
12:55AM 11.1580 -77.1000 142° Southeast 506 582 35,000  Level FlightAware
12:55AM 11.1080 -77.0520 137° Southeast 507 583 35,000  Level FlightAware
12:56AM 11.0500 -76.9960 137° Southeast 507 583 35,000  Level FlightAware
12:56AM 10.9970 -76.9430 136° Southeast 507 583 35,000  Level FlightAware
12:57AM 10.9450 -76.8930 137° Southeast 507 583 35,000  Level FlightAware
12:58AM 10.8940 -76.8420 136° Southeast 507 583 35,000  Level FlightAware
12:58AM 10.8420 -76.7910 136° Southeast 507 583 35,000  Level FlightAware
12:59AM 10.7910 -76.7400 136° Southeast 507 583 35,000  Level FlightAware
12:59AM 10.7390 -76.6890 136° Southeast 507 583 35,000  Level FlightAware
01:00AM 10.6140 -76.5610 135° Southeast 503 579 35,000  Level FlightAware
01:01AM 10.5570 -76.4980 133° Southeast 503 579 35,000  Level FlightAware
01:01AM 10.5020 -76.4380 133° Southeast 503 579 35,000  Level FlightAware
01:02AM 10.4390 -76.3700 133° Southeast 504 580 35,000  Level FlightAware
01:02AM 10.3710 -76.2950 133° Southeast 502 578 35,000  Level FlightAware
01:03AM 10.3190 -76.2390 133° Southeast 502 578 35,000  Level FlightAware
01:04AM 10.2470 -76.1590 132° Southeast 510 587 35,000  Level FlightAware
01:04AM 10.1940 -76.1000 132° Southeast 510 587 35,000  Level FlightAware
01:05AM 10.1440 -76.0450 133° Southeast 510 587 35,000  Level FlightAware
01:05AM 10.0820 -75.9770 133° Southeast 510 587 35,000  Level FlightAware
01:06AM 10.0260 -75.9160 133° Southeast 510 587 35,000  Level FlightAware
01:07AM 9.9600 -75.8440 133° Southeast 511 588 35,000  Level FlightAware
01:07AM 9.9050 -75.7890 135° Southeast 515 593 35,000  Level FlightAware
01:08AM 9.8450 -75.7410 142° Southeast 517 595 35,000  Level FlightAware
01:08AM 9.7600 -75.6880 148° Southeast 519 597 35,000  Level FlightAware
01:09AM 9.6760 -75.6370 149° Southeast 517 595 35,000  Level FlightAware
01:10AM 9.6150 -75.6000 149° Southeast 513 590 35,000  Level FlightAware
01:10AM 9.5220 -75.5440 149° Southeast 512 589 35,000  Level FlightAware
01:11AM 9.4430 -75.4960 149° Southeast 513 590 35,000  Level FlightAware
01:12AM 9.3810 -75.4580 149° Southeast 512 589 35,000  Level FlightAware
01:12AM 9.2930 -75.4050 149° Southeast 512 589 35,000  Level FlightAware
01:13AM 9.2250 -75.3640 149° Southeast 511 588 35,000  Level FlightAware
01:14AM 9.1380 -75.3110 149° Southeast 512 589 35,000  Level FlightAware
01:14AM 9.0610 -75.2640 149° Southeast 512 589 35,000  Level FlightAware
01:15AM 8.9730 -75.2110 149° Southeast 512 589 35,000  Level FlightAware
01:16AM 8.8950 -75.1630 149° Southeast 512 589 35,000  Level FlightAware
01:16AM 8.8180 -75.1170 149° Southeast 506 582 35,000  Level FlightAware
01:17AM 8.7350 -75.0670 149° Southeast 507 583 35,000  Level FlightAware
01:18AM 8.6640 -75.0240 149° Southeast 509 586 35,000  Level FlightAware
01:18AM 8.5830 -74.9850 155° Southeast 514 592 35,000  Level FlightAware
01:19AM 8.5060 -74.9580 161° South 513 590 35,000  Level FlightAware
01:19AM 8.4200 -74.9270 160° South 512 589 35,000  Level FlightAware
01:20AM 8.3460 -74.8890 153° Southeast 513 590 35,000  Level FlightAware
01:20AM 8.2700 -74.8490 152° Southeast 513 590 35,000  Level FlightAware
01:21AM 8.1970 -74.8090 152° Southeast 511 588 35,000  Level FlightAware
01:22AM 8.1150 -74.7630 151° Southeast 511 588 35,000  Level FlightAware
01:22AM 8.0520 -74.7290 152° Southeast 509 586 35,000  Level FlightAware
01:23AM 7.9790 -74.6890 152° Southeast 509 586 35,000  Level FlightAware
01:23AM 7.8990 -74.6450 151° Southeast 508 585 35,000  Level FlightAware
01:24AM 7.8360 -74.6100 151° Southeast 507 583 35,000  Level FlightAware
01:25AM 7.7660 -74.5710 151° Southeast 509 586 35,000  Level FlightAware
01:25AM 7.6910 -74.5300 152° Southeast 511 588 35,000  Level FlightAware
01:26AM 7.6190 -74.4870 149° Southeast 510 587 35,000  Level FlightAware
01:26AM 7.5520 -74.4370 144° Southeast 511 588 35,000  Level FlightAware
01:27AM 7.4880 -74.3830 140° Southeast 509 586 35,000  Level FlightAware
01:27AM 7.4340 -74.3240 133° Southeast 509 586 35,000  Level FlightAware
01:28AM 7.3820 -74.2570 128° Southeast 509 586 35,000  Level FlightAware
01:29AM 7.3310 -74.1920 128° Southeast 509 586 35,000  Level FlightAware
01:29AM 7.2730 -74.1170 128° Southeast 509 586 35,000  Level FlightAware
01:30AM 7.2170 -74.0460 128° Southeast 508 585 35,000  Level FlightAware
01:31AM 7.1670 -73.9820 128° Southeast 509 586 35,000  Level FlightAware
01:31AM 7.1160 -73.9170 128° Southeast 509 586 35,000  Level FlightAware
01:32AM 7.0610 -73.8460 128° Southeast 510 587 35,000  Level FlightAware
01:32AM 6.9900 -73.7860 140° Southeast 512 589 35,000  Level FlightAware
01:33AM 6.9180 -73.7460 151° Southeast 513 590 35,000  Level FlightAware
01:34AM 6.8330 -73.7000 152° Southeast 513 590 35,000  Level FlightAware
01:34AM 6.7530 -73.6570 152° Southeast 511 588 35,000  Level FlightAware
01:35AM 6.6770 -73.6150 151° Southeast 510 587 35,000  Level FlightAware
01:35AM 6.6120 -73.5800 152° Southeast 510 587 35,000  Level FlightAware
01:36AM 6.5360 -73.5390 152° Southeast 510 587 35,000  Level FlightAware
01:37AM 6.4600 -73.4980 152° Southeast 511 588 35,000  Level FlightAware
01:37AM 6.3850 -73.4570 151° Southeast 512 589 35,000  Level FlightAware
01:38AM 6.3140 -73.4190 152° Southeast 511 588 35,000  Level FlightAware
01:38AM 6.2380 -73.3780 152° Southeast 511 588 35,000  Level FlightAware
01:39AM 6.1640 -73.3380 152° Southeast 512 589 35,000  Level FlightAware
01:40AM 6.0890 -73.2970 151° Southeast 511 588 35,000  Level FlightAware
01:40AM 6.0260 -73.2610 150° Southeast 511 588 35,000  Level FlightAware
01:41AM 5.9620 -73.2260 151° Southeast 511 588 35,000  Level FlightAware
01:41AM 5.8990 -73.1910 151° Southeast 511 588 35,000  Level FlightAware
01:42AM 5.8360 -73.1560 151° Southeast 511 588 35,000  Level FlightAware
01:43AM 5.7710 -73.1190 150° Southeast 511 588 35,000  Level FlightAware
01:43AM 5.6270 -73.0490 154° Southeast 511 588 35,000  Level FlightAware
01:44AM 5.5500 -73.0070 152° Southeast 511 588 35,000  Level FlightAware
01:44AM 5.4830 -72.9710 152° Southeast 511 588 35,000  Level FlightAware
01:45AM 5.4070 -72.9300 152° Southeast 511 588 35,000  Level FlightAware
01:46AM 5.3320 -72.8900 152° Southeast 511 588 35,000  Level FlightAware
01:46AM 5.2650 -72.8540 152° Southeast 511 588 35,000  Level FlightAware
01:47AM 5.1900 -72.8130 151° Southeast 512 589 35,000  Level FlightAware
01:47AM 5.1140 -72.7730 152° Southeast 513 590 35,000  Level FlightAware
01:48AM 5.0540 -72.7390 151° Southeast 513 590 35,000  Level FlightAware
01:49AM 4.9900 -72.7040 151° Southeast 513 590 35,000  Level FlightAware
01:49AM 4.9250 -72.6680 151° Southeast 513 590 35,000  Level FlightAware
01:50AM 4.8590 -72.6310 151° Southeast 513 590 35,000  Level FlightAware
01:50AM 4.7960 -72.5960 151° Southeast 513 590 35,000  Level FlightAware
01:51AM 4.7320 -72.5610 151° Southeast 513 590 35,000  Level FlightAware
01:52AM 4.6690 -72.5250 150° Southeast 513 590 35,000  Level FlightAware
01:52AM 4.6050 -72.4900 151° Southeast 513 590 35,000  Level FlightAware
01:53AM 4.5420 -72.4550 151° Southeast 513 590 35,000  Level FlightAware
01:53AM 4.4780 -72.4190 151° Southeast 513 590 35,000  Level FlightAware
01:54AM 4.4150 -72.3840 151° Southeast 513 590 35,000  Level FlightAware
01:55AM 4.3510 -72.3490 151° Southeast 513 590 35,000  Level FlightAware
01:55AM 4.2880 -72.3140 151° Southeast 513 590 35,000  Level FlightAware
01:56AM 4.2240 -72.2780 151° Southeast 513 590 35,000  Level FlightAware
01:56AM 4.1610 -72.2430 151° Southeast 513 590 35,000  Level FlightAware
01:57AM 4.0970 -72.2080 151° Southeast 513 590 35,000  Level FlightAware
02:00AM 3.7924 -72.0626 155° Southeast  Level FlightAware Approximate
02:01AM 3.6730 -72.0056 155° Southeast  Level FlightAware Approximate
02:02AM 3.5535 -71.9486 155° Southeast  Level FlightAware Approximate
02:03AM 3.4341 -71.8916 155° Southeast  Level FlightAware Approximate
02:04AM 3.3349 -71.8040 143° Southeast  Level Estimated
02:05AM 3.2289 -71.7246 143° Southeast  Level FlightAware Approximate
02:06AM 3.1229 -71.6453 143° Southeast  Level FlightAware Approximate
02:07AM 3.0170 -71.5660 143° Southeast  Level FlightAware Approximate
02:08AM 2.9110 -71.4867 143° Southeast  Level FlightAware Approximate
02:09AM 2.8050 -71.4074 143° Southeast  Level FlightAware Approximate
02:10AM 2.6990 -71.3281 143° Southeast  Level FlightAware Approximate
02:11AM 2.5930 -71.2488 143° Southeast  Level FlightAware Approximate
02:12AM 2.4870 -71.1696 143° Southeast  Level FlightAware Approximate
02:13AM 2.3810 -71.0904 143° Southeast  Level FlightAware Approximate
02:14AM 2.2750 -71.0111 143° Southeast  Level FlightAware Approximate
02:15AM 2.1690 -70.9319 143° Southeast  Level FlightAware Approximate
02:16AM 2.0630 -70.8527 143° Southeast  Level FlightAware Approximate
02:17AM 1.9570 -70.7736 143° Southeast  Level FlightAware Approximate
02:18AM 1.8510 -70.6944 143° Southeast  Level FlightAware Approximate
02:19AM 1.7449 -70.6152 143° Southeast  Level FlightAware Approximate
02:20AM 1.6389 -70.5360 143° Southeast  Level FlightAware Approximate
02:21AM 1.5329 -70.4569 143° Southeast  Level FlightAware Approximate
02:22AM 1.4268 -70.3777 143° Southeast  Level FlightAware Approximate
02:23AM 1.3208 -70.2986 143° Southeast  Level FlightAware Approximate
02:24AM 1.2219 -70.2107 138° Southeast  Level Estimated
02:25AM 1.1231 -70.1227 138° Southeast  Level FlightAware Approximate
02:26AM 1.0243 -70.0348 138° Southeast  Level FlightAware Approximate
02:27AM 0.9254 -69.9468 138° Southeast  Level FlightAware Approximate
02:28AM 0.8266 -69.8588 138° Southeast  Level FlightAware Approximate
02:29AM 0.7278 -69.7709 138° Southeast  Level FlightAware Approximate
02:30AM 0.6289 -69.6830 138° Southeast  Level FlightAware Approximate
02:31AM 0.5301 -69.5950 138° Southeast  Level FlightAware Approximate
02:32AM 0.4312 -69.5071 138° Southeast  Level FlightAware Approximate
02:33AM 0.3324 -69.4191 138° Southeast  Level FlightAware Approximate
02:34AM 0.2335 -69.3312 138° Southeast  Level FlightAware Approximate
02:35AM 0.1347 -69.2433 138° Southeast  Level FlightAware Approximate
02:36AM 0.0358 -69.1553 138° Southeast  Level FlightAware Approximate
02:37AM -0.0630 -69.0674 138° Southeast  Level FlightAware Approximate
02:38AM -0.1619 -68.9795 138° Southeast  Level FlightAware Approximate
02:39AM -0.2607 -68.8915 138° Southeast  Level FlightAware Approximate
02:40AM -0.3596 -68.8036 138° Southeast  Level FlightAware Approximate
02:41AM -0.4584 -68.7157 138° Southeast  Level FlightAware Approximate
02:42AM -0.5573 -68.6277 138° Southeast  Level FlightAware Approximate
02:43AM -0.6561 -68.5398 138° Southeast  Level FlightAware Approximate
02:44AM -0.7549 -68.4519 138° Southeast  Level FlightAware Approximate
02:45AM -0.8538 -68.3639 138° Southeast  Level FlightAware Approximate
02:46AM -0.9526 -68.2759 138° Southeast  Level FlightAware Approximate
02:47AM -1.0515 -68.1880 138° Southeast  Level FlightAware Approximate
02:48AM -1.1503 -68.1000 138° Southeast  Level FlightAware Approximate
02:49AM -1.2491 -68.0121 138° Southeast  Level FlightAware Approximate
02:50AM -1.3479 -67.9241 138° Southeast  Level FlightAware Approximate
02:51AM -1.4468 -67.8361 138° Southeast  Level FlightAware Approximate
02:52AM -1.5456 -67.7481 138° Southeast  Level FlightAware Approximate
02:53AM -1.6444 -67.6601 138° Southeast  Level FlightAware Approximate
02:54AM -1.7432 -67.5721 138° Southeast  Level FlightAware Approximate
02:55AM -1.8420 -67.4841 138° Southeast  Level FlightAware Approximate
02:56AM -1.9408 -67.3960 138° Southeast  Level FlightAware Approximate
02:57AM -2.0396 -67.3080 138° Southeast  Level FlightAware Approximate
02:58AM -2.1384 -67.2200 138° Southeast  Level FlightAware Approximate
02:59AM -2.2372 -67.1319 138° Southeast  Level FlightAware Approximate
03:00AM -2.3360 -67.0438 138° Southeast  Level FlightAware Approximate
03:01AM -2.4348 -66.9557 138° Southeast  Level FlightAware Approximate
03:02AM -2.5335 -66.8677 138° Southeast  Level FlightAware Approximate
03:03AM -2.6323 -66.7795 138° Southeast  Level FlightAware Approximate
03:04AM -2.7311 -66.6914 138° Southeast  Level FlightAware Approximate
03:05AM -2.8298 -66.6033 138° Southeast  Level FlightAware Approximate
03:06AM -2.9286 -66.5151 138° Southeast  Level FlightAware Approximate
03:07AM -3.0273 -66.4270 138° Southeast  Level FlightAware Approximate
03:08AM -3.1260 -66.3388 138° Southeast  Level FlightAware Approximate
03:09AM -3.2248 -66.2506 138° Southeast  Level FlightAware Approximate
03:10AM -3.3235 -66.1624 138° Southeast  Level FlightAware Approximate
03:11AM -3.4222 -66.0741 138° Southeast  Level FlightAware Approximate
03:12AM -3.5209 -65.9858 138° Southeast  Level FlightAware Approximate
03:13AM -3.6196 -65.8976 138° Southeast  Level FlightAware Approximate
03:14AM -3.7183 -65.8093 138° Southeast  Level FlightAware Approximate
03:15AM -3.8170 -65.7210 138° Southeast  Level FlightAware Approximate
03:16AM -3.9156 -65.6327 138° Southeast  Level FlightAware Approximate
03:17AM -4.0143 -65.5443 138° Southeast  Level FlightAware Approximate
03:18AM -4.1129 -65.4559 138° Southeast  Level FlightAware Approximate
03:19AM -4.2116 -65.3675 138° Southeast  Level FlightAware Approximate
03:20AM -4.3102 -65.2791 138° Southeast  Level FlightAware Approximate
03:21AM -4.4088 -65.1907 138° Southeast  Level FlightAware Approximate
03:22AM -4.5074 -65.1022 138° Southeast  Level FlightAware Approximate
03:23AM -4.6060 -65.0137 138° Southeast  Level FlightAware Approximate
03:24AM -4.7046 -64.9252 138° Southeast  Level FlightAware Approximate
03:25AM -4.8032 -64.8366 138° Southeast  Level FlightAware Approximate
03:26AM -4.9018 -64.7481 138° Southeast  Level FlightAware Approximate
03:27AM -5.0003 -64.6595 138° Southeast  Level FlightAware Approximate
03:28AM -5.0989 -64.5709 138° Southeast  Level FlightAware Approximate
03:29AM -5.1974 -64.4822 138° Southeast  Level FlightAware Approximate
03:30AM -5.2959 -64.3935 138° Southeast  Level FlightAware Approximate
03:31AM -5.3944 -64.3048 138° Southeast  Level FlightAware Approximate
03:32AM -5.4929 -64.2161 138° Southeast  Level FlightAware Approximate
03:33AM -5.5914 -64.1274 138° Southeast  Level FlightAware Approximate
03:34AM -5.6898 -64.0386 138° Southeast  Level FlightAware Approximate
03:35AM -5.7883 -63.9497 138° Southeast  Level FlightAware Approximate
03:36AM -5.8867 -63.8609 138° Southeast  Level FlightAware Approximate
03:37AM -5.9851 -63.7720 138° Southeast  Level FlightAware Approximate
03:38AM -6.0836 -63.6831 138° Southeast  Level FlightAware Approximate
03:39AM -6.1820 -63.5942 138° Southeast  Level FlightAware Approximate
03:40AM -6.2803 -63.5052 138° Southeast  Level FlightAware Approximate
03:41AM -6.3787 -63.4162 138° Southeast  Level FlightAware Approximate
03:42AM -6.4770 -63.3271 138° Southeast  Level FlightAware Approximate
03:43AM -6.5754 -63.2380 138° Southeast  Level FlightAware Approximate
03:44AM -6.6737 -63.1489 138° Southeast  Level FlightAware Approximate
03:45AM -6.7720 -63.0598 138° Southeast  Level FlightAware Approximate
03:46AM -6.8703 -62.9706 138° Southeast  Level FlightAware Approximate
03:47AM -6.9686 -62.8814 138° Southeast  Level FlightAware Approximate
03:48AM -7.0668 -62.7921 138° Southeast  Level FlightAware Approximate
03:49AM -7.1650 -62.7028 138° Southeast  Level FlightAware Approximate
03:50AM -7.2633 -62.6134 138° Southeast  Level FlightAware Approximate
03:51AM -7.3615 -62.5241 138° Southeast  Level FlightAware Approximate
03:52AM -7.4596 -62.4347 138° Southeast  Level FlightAware Approximate
03:53AM -7.5578 -62.3452 138° Southeast  Level FlightAware Approximate
03:54AM -7.6560 -62.2557 138° Southeast  Level FlightAware Approximate
03:55AM -7.7541 -62.1661 138° Southeast  Level FlightAware Approximate
03:56AM -7.8522 -62.0766 138° Southeast  Level FlightAware Approximate
03:57AM -7.9503 -61.9869 138° Southeast  Level FlightAware Approximate
03:58AM -8.0484 -61.8973 138° Southeast  Level FlightAware Approximate
03:59AM -8.1464 -61.8076 138° Southeast  Level FlightAware Approximate
04:00AM -8.2444 -61.7178 138° Southeast  Level FlightAware Approximate
04:01AM -8.3425 -61.6280 138° Southeast  Level FlightAware Approximate
04:02AM -8.4404 -61.5382 138° Southeast  Level FlightAware Approximate
04:03AM -8.5384 -61.4483 138° Southeast  Level FlightAware Approximate
04:04AM -8.6364 -61.3583 138° Southeast  Level FlightAware Approximate
04:05AM -8.7343 -61.2683 138° Southeast  Level FlightAware Approximate
04:06AM -8.8322 -61.1783 138° Southeast  Level FlightAware Approximate
04:07AM -8.9301 -61.0882 138° Southeast  Level FlightAware Approximate
04:08AM -9.0280 -60.9981 138° Southeast  Level FlightAware Approximate
04:09AM -9.1258 -60.9079 138° Southeast  Level FlightAware Approximate
04:10AM -9.2236 -60.8177 138° Southeast  Level FlightAware Approximate
04:11AM -9.3214 -60.7274 138° Southeast  Level FlightAware Approximate
04:12AM -9.4192 -60.6371 138° Southeast  Level FlightAware Approximate
04:13AM -9.5169 -60.5467 138° Southeast  Level FlightAware Approximate
04:14AM -9.6147 -60.4563 138° Southeast  Level FlightAware Approximate
04:15AM -9.7124 -60.3658 138° Southeast  Level FlightAware Approximate
04:16AM -9.8101 -60.2753 138° Southeast  Level FlightAware Approximate
04:17AM -9.9077 -60.1847 138° Southeast  Level FlightAware Approximate
04:18AM -10.0052 -60.0942 138° Southeast  Level FlightAware Approximate
04:19AM -10.1026 -60.0037 138° Southeast  Level FlightAware Approximate
04:20AM -10.2000 -59.9131 138° Southeast  Level FlightAware Approximate
04:21AM -10.2974 -59.8224 138° Southeast  Level FlightAware Approximate
04:22AM -10.3948 -59.7317 138° Southeast  Level FlightAware Approximate
04:23AM -10.4921 -59.6409 137° Southeast  Level FlightAware Approximate
04:24AM -10.5894 -59.5501 137° Southeast  Level FlightAware Approximate
04:25AM -10.6867 -59.4593 137° Southeast  Level FlightAware Approximate
04:26AM -10.7840 -59.3683 137° Southeast  Level FlightAware Approximate
04:27AM -10.8812 -59.2773 137° Southeast  Level FlightAware Approximate
04:28AM -10.9784 -59.1863 137° Southeast  Level FlightAware Approximate
04:29AM -11.0756 -59.0952 137° Southeast  Level FlightAware Approximate
04:30AM -11.1728 -59.0040 137° Southeast  Level FlightAware Approximate
04:31AM -11.2699 -58.9128 137° Southeast  Level FlightAware Approximate
04:32AM -11.3670 -58.8215 137° Southeast  Level FlightAware Approximate
04:33AM -11.4641 -58.7301 137° Southeast  Level FlightAware Approximate
04:34AM -11.5611 -58.6387 137° Southeast  Level FlightAware Approximate
04:35AM -11.6581 -58.5472 137° Southeast  Level FlightAware Approximate
04:36AM -11.7551 -58.4557 137° Southeast  Level FlightAware Approximate
04:37AM -11.8520 -58.3641 137° Southeast  Level FlightAware Approximate
04:38AM -11.9489 -58.2724 137° Southeast  Level FlightAware Approximate
04:39AM -12.0458 -58.1807 137° Southeast  Level FlightAware Approximate
04:40AM -12.1427 -58.0889 137° Southeast  Level FlightAware Approximate
04:41AM -12.2395 -57.9970 137° Southeast  Level FlightAware Approximate
04:42AM -12.3363 -57.9051 137° Southeast  Level FlightAware Approximate
04:43AM -12.4331 -57.8130 137° Southeast  Level FlightAware Approximate
04:44AM -12.5298 -57.7210 137° Southeast  Level FlightAware Approximate
04:45AM -12.6265 -57.6288 137° Southeast  Level FlightAware Approximate
04:46AM -12.7232 -57.5366 137° Southeast  Level FlightAware Approximate
04:47AM -12.8199 -57.4443 137° Southeast  Level FlightAware Approximate
04:48AM -12.9165 -57.3520 137° Southeast  Level FlightAware Approximate
04:49AM -13.0131 -57.2595 137° Southeast  Level FlightAware Approximate
04:50AM -13.1096 -57.1670 137° Southeast  Level FlightAware Approximate
04:51AM -13.2061 -57.0745 137° Southeast  Level FlightAware Approximate
04:52AM -13.3026 -56.9818 137° Southeast  Level FlightAware Approximate
04:53AM -13.3991 -56.8891 137° Southeast  Level FlightAware Approximate
04:54AM -13.4955 -56.7963 137° Southeast  Level FlightAware Approximate
04:55AM -13.5919 -56.7034 137° Southeast  Level FlightAware Approximate
04:56AM -13.6882 -56.6105 137° Southeast  Level FlightAware Approximate
04:57AM -13.7845 -56.5175 137° Southeast  Level FlightAware Approximate
04:58AM -13.8808 -56.4244 137° Southeast  Level FlightAware Approximate
04:59AM -13.9770 -56.3312 137° Southeast  Level FlightAware Approximate
05:00AM -14.0732 -56.2379 137° Southeast  Level FlightAware Approximate
05:01AM -14.1694 -56.1446 137° Southeast  Level FlightAware Approximate
05:02AM -14.2655 -56.0512 137° Southeast  Level FlightAware Approximate
05:03AM -14.3617 -55.9577 137° Southeast  Level FlightAware Approximate
05:04AM -14.4577 -55.8641 137° Southeast  Level FlightAware Approximate
05:05AM -14.5537 -55.7705 137° Southeast  Level FlightAware Approximate
05:06AM -14.6497 -55.6768 137° Southeast  Level FlightAware Approximate
05:07AM -14.7457 -55.5829 137° Southeast  Level FlightAware Approximate
05:08AM -14.8416 -55.4890 137° Southeast  Level FlightAware Approximate
05:09AM -14.9375 -55.3951 137° Southeast  Level FlightAware Approximate
05:10AM -15.0333 -55.3010 137° Southeast  Level FlightAware Approximate
05:11AM -15.1291 -55.2068 137° Southeast  Level FlightAware Approximate
05:12AM -15.2248 -55.1126 136° Southeast  Level FlightAware Approximate
05:13AM -15.3206 -55.0183 136° Southeast  Level FlightAware Approximate
05:14AM -15.4162 -54.9239 136° Southeast  Level FlightAware Approximate
05:15AM -15.5119 -54.8294 136° Southeast  Level FlightAware Approximate
05:16AM -15.6075 -54.7348 136° Southeast  Level FlightAware Approximate
05:17AM -15.7030 -54.6401 136° Southeast  Level FlightAware Approximate
05:18AM -15.7986 -54.5454 136° Southeast  Level FlightAware Approximate
05:19AM -15.8940 -54.4505 136° Southeast  Level FlightAware Approximate
05:20AM -15.9895 -54.3556 136° Southeast  Level FlightAware Approximate
05:21AM -16.0849 -54.2606 136° Southeast  Level FlightAware Approximate
05:22AM -16.1802 -54.1654 136° Southeast  Level FlightAware Approximate
05:23AM -16.2755 -54.0702 136° Southeast  Level FlightAware Approximate
05:24AM -16.3708 -53.9749 136° Southeast  Level FlightAware Approximate
05:25AM -16.4660 -53.8795 136° Southeast  Level FlightAware Approximate
05:26AM -16.5612 -53.7840 136° Southeast  Level FlightAware Approximate
05:27AM -16.6563 -53.6884 136° Southeast  Level FlightAware Approximate
05:28AM -16.7514 -53.5928 136° Southeast  Level FlightAware Approximate
05:29AM -16.8465 -53.4970 136° Southeast  Level FlightAware Approximate
05:30AM -16.9415 -53.4011 136° Southeast  Level FlightAware Approximate
05:31AM -17.0364 -53.3051 136° Southeast  Level FlightAware Approximate
05:32AM -17.1313 -53.2091 136° Southeast  Level FlightAware Approximate
05:33AM -17.2262 -53.1129 136° Southeast  Level FlightAware Approximate
05:34AM -17.3210 -53.0167 136° Southeast  Level FlightAware Approximate
05:35AM -17.4158 -52.9203 136° Southeast  Level FlightAware Approximate
05:36AM -17.5105 -52.8238 136° Southeast  Level FlightAware Approximate
05:37AM -17.6052 -52.7273 136° Southeast  Level FlightAware Approximate
05:38AM -17.6998 -52.6306 136° Southeast  Level FlightAware Approximate
05:39AM -17.7944 -52.5338 136° Southeast  Level FlightAware Approximate
05:40AM -17.8890 -52.4370 136° Southeast  Level FlightAware Approximate
05:41AM -17.9835 -52.3400 136° Southeast  Level FlightAware Approximate
05:42AM -18.0779 -52.2429 136° Southeast  Level FlightAware Approximate
05:43AM -18.1723 -52.1457 136° Southeast  Level FlightAware Approximate
05:44AM -18.2666 -52.0484 136° Southeast  Level FlightAware Approximate
05:44AM -19.0760 -50.6130 136° Southeast 497 572 35,000  Level FlightAware
05:44AM -19.1370 -50.5470 134° Southeast 499 574 35,000  Level FlightAware
05:45AM -19.1890 -50.4890 134° Southeast 500 575 35,000  Level FlightAware
05:45AM -19.2460 -50.4270 134° Southeast 500 575 35,000  Level FlightAware
05:46AM -19.3010 -50.3670 134° Southeast 500 575 35,000  Level FlightAware
05:47AM -19.3620 -50.3000 134° Southeast 500 575 35,000  Level FlightAware
05:47AM -19.4130 -50.2440 134° Southeast 500 575 35,000  Level FlightAware
05:48AM -19.4700 -50.1810 134° Southeast 500 575 35,000  Level FlightAware
05:48AM -19.5280 -50.1170 134° Southeast 500 575 35,000  Level FlightAware
05:49AM -19.5840 -50.0560 134° Southeast 500 575 35,000  Level FlightAware
05:50AM -19.6420 -49.9920 134° Southeast 500 575 35,000  Level FlightAware
05:50AM -19.6960 -49.9330 134° Southeast 501 577 35,000  Level FlightAware
05:51AM -19.7550 -49.8690 134° Southeast 502 578 35,000  Level FlightAware
05:51AM -19.8140 -49.8040 134° Southeast 502 578 35,000  Level FlightAware
05:52AM -19.8660 -49.7480 135° Southeast 503 579 35,000  Level FlightAware
05:52AM -19.9230 -49.6850 134° Southeast 503 579 35,000  Level FlightAware
05:53AM -19.9710 -49.6320 134° Southeast 503 579 35,000  Level FlightAware
05:54AM -20.0370 -49.5590 134° Southeast 502 578 35,000  Level FlightAware
05:54AM -20.0950 -49.4960 134° Southeast 502 578 35,000  Level FlightAware
05:55AM -20.1520 -49.4340 134° Southeast 502 578 35,000  Level FlightAware
05:55AM -20.2050 -49.3750 134° Southeast 504 580 35,000  Level FlightAware
05:56AM -20.2610 -49.3130 134° Southeast 504 580 35,000  Level FlightAware
05:56AM -20.3160 -49.2530 134° Southeast 504 580 35,000  Level FlightAware
05:57AM -20.3800 -49.1820 134° Southeast 503 579 35,000  Level FlightAware
05:58AM -20.4350 -49.1210 134° Southeast 503 579 35,000  Level FlightAware
05:58AM -20.4900 -49.0600 134° Southeast 503 579 35,000  Level FlightAware
05:59AM -20.5450 -48.9980 133° Southeast 504 580 35,000  Level FlightAware
05:59AM -20.6040 -48.9340 135° Southeast 504 580 35,000  Level FlightAware
06:00AM -20.6580 -48.8730 133° Southeast 504 580 35,000  Level FlightAware
06:01AM -20.7170 -48.8080 134° Southeast 502 578 35,000  Level FlightAware
06:01AM -20.7770 -48.7410 134° Southeast 502 578 35,000  Level FlightAware
06:02AM -20.8290 -48.6820 133° Southeast 502 578 35,000  Level FlightAware
06:02AM -20.8780 -48.6160 128° Southeast 504 580 35,000  Level FlightAware
06:03AM -20.9330 -48.5440 129° Southeast 503 579 35,000  Level FlightAware
06:03AM -20.9810 -48.4870 132° Southeast 501 577 35,000  Level FlightAware
06:04AM -21.0400 -48.4190 133° Southeast 503 579 35,000  Level FlightAware
06:05AM -21.0980 -48.3540 134° Southeast 502 578 35,000  Level FlightAware
06:05AM -21.1500 -48.2950 133° Southeast 501 577 35,000  Level FlightAware
06:06AM -21.2070 -48.2310 134° Southeast 501 577 35,000  Level FlightAware
06:06AM -21.2640 -48.1660 133° Southeast 501 577 35,000  Level FlightAware
06:07AM -21.3190 -48.1040 134° Southeast 500 575 35,000  Level FlightAware
06:07AM -21.3670 -48.0510 134° Southeast 498 573 35,000 -1,080 Level FlightAware
06:08AM -21.4450 -47.9910 144° Southeast 503 579 33,800 -1,500 Descending FlightAware
06:09AM -21.5110 -47.9410 145° Southeast 504 580 33,100 -900 Descending FlightAware
06:09AM -21.5740 -47.8920 144° Southeast 499 574 32,800 -720 Descending FlightAware
06:10AM -21.6400 -47.8380 143° Southeast 496 571 32,300 -840 Descending FlightAware
06:10AM -21.7060 -47.7840 143° Southeast 492 566 31,800 -840 Descending FlightAware
06:11AM -21.7680 -47.7340 143° Southeast 489 563 31,300 -840 Descending FlightAware
06:12AM -21.8370 -47.6800 144° Southeast 485 558 30,800 -720 Descending FlightAware
06:12AM -21.8950 -47.6350 144° Southeast 483 556 30,500 -660 Descending FlightAware
06:13AM -21.9610 -47.5830 144° Southeast 477 549 30,100 -600 Descending FlightAware
06:13AM -22.0240 -47.5340 144° Southeast 472 543 29,800 -540 Descending FlightAware
06:14AM -22.0840 -47.4870 144° Southeast 467 537 29,500 -840 Descending FlightAware
06:15AM -22.1390 -47.4430 143° Southeast 460 529 28,900 -1,320 Descending FlightAware
06:15AM -22.2010 -47.3950 144° Southeast 442 509 28,000 -1,560 Descending FlightAware
06:16AM -22.2620 -47.3460 143° Southeast 431 496 27,000 -2,220 Descending FlightAware
06:16AM -22.3210 -47.3000 144° Southeast 438 504 25,400 -2,400 Descending FlightAware
06:17AM -22.3730 -47.2590 144° Southeast 432 497 24,300 -1,980 Descending FlightAware
06:17AM -22.4310 -47.2130 144° Southeast 425 489 23,200 -1,860 Descending FlightAware
06:18AM -22.4880 -47.1680 144° Southeast 420 483 22,100 -1,860 Descending FlightAware
06:19AM -22.5370 -47.1290 144° Southeast 414 476 21,100 -1,920 Descending FlightAware
06:19AM -22.5990 -47.0890 149° Southeast 406 467 19,900 -1,800 Descending FlightAware
06:20AM -22.6540 -47.0650 158° South 401 461 19,000 -1,860 Descending FlightAware
06:20AM -22.7180 -47.0390 159° South 396 456 17,800 -1,860 Descending FlightAware
06:21AM -22.7770 -47.0140 159° South 393 452 16,800 -1,800 Descending FlightAware
06:22AM -22.8340 -46.9900 159° South 391 450 15,800 -1,920 Descending FlightAware
06:22AM -22.8950 -46.9640 159° South 389 448 14,600 -1,920 Descending FlightAware
06:23AM -22.9560 -46.9390 159° South 386 444 13,500 -1,380 Descending FlightAware
06:23AM -23.0090 -46.9160 158° South 349 402 13,000 -1,380 Descending FlightAware
06:24AM -23.0620 -46.8940 159° South 332 382 11,900 -1,860 Descending FlightAware
06:25AM -23.1120 -46.8730 159° South 312 359 10,800 -1,920 Descending FlightAware
06:25AM -23.1490 -46.8570 158° South 289 333 9,900 -2,280 Descending FlightAware
06:25AM -23.1740 -46.8470 160° South 289 333 9,000 -2,280 Descending FlightAware
06:26AM -23.1970 -46.8370 158° South 278 320 8,400 -1,680 Descending FlightAware
06:26AM -23.2220 -46.8260 158° South 266 306 7,900 -960 Descending FlightAware
06:26AM -23.2480 -46.8160 161° South 253 291 7,700 -300 Descending FlightAware
06:27AM -23.2680 -46.8070 158° South 246 283 7,700  Level FlightAware
06:27AM -23.2900 -46.7980 159° South 237 273 7,700 -180 Level FlightAware
06:27AM -23.3110 -46.7890 159° South 238 274 7,600 -300 Descending FlightAware
06:28AM -23.3350 -46.7790 159° South 229 264 7,500 -420 Descending FlightAware
06:28AM -23.3550 -46.7700 158° South 224 258 7,300 -600 Descending FlightAware
06:28AM -23.3740 -46.7600 154° Southeast 225 259 7,100 -720 Descending FlightAware
06:29AM -23.3800 -46.7550 143° Southeast 227 261 7,000 -780 Descending FlightAware
06:29AM -23.3940 -46.7430 142° Southeast 224 258 6,800 -300 Descending FlightAware
06:29AM -23.4120 -46.7260 139° Southeast 211 243 6,800  Level FlightAware
06:30AM -23.4290 -46.7090 137° Southeast 208 239 6,800  Level FlightAware
06:30AM -23.4440 -46.6950 139° Southeast 210 242 6,800 -240 Level FlightAware
06:30AM -23.4490 -46.6890 132° Southeast 206 237 6,700 -1,500 Descending FlightAware
06:30AM -23.4570 -46.6710 116° Southeast 199 229 6,100 -1,680 Descending FlightAware
06:31AM -23.4650 -46.6530 116° Southeast 188 216 5,600 -1,680 Descending FlightAware
06:31AM -23.4720 -46.6360 114° Southeast 179 206 5,000 -1,740 Descending FlightAware
06:31AM -23.4740 -46.6300 110° East 175 201 4,800 -1,500 Descending FlightAware
06:31AM -23.4740 -46.6220 90° East 173 199 4,600 -840 Descending FlightAware
06:32AM -23.4710 -46.6060 78° East 164 189 4,400 -600 Descending FlightAware
06:32AM -23.4670 -46.5910 74° East 152 175 4,200 -780 Descending FlightAware
06:32AM -23.4630 -46.5760 74° East 145 167 3,900 -960 Descending FlightAware
06:33AM -23.4580 -46.5570 74° East 152 175 3,500 -840 Descending FlightAware
06:33AM -23.4540 -46.5440 71° East 149 171 3,300 -840 Descending FlightAware
06:33AM -23.4500 -46.5300 73° East 147 169 3,000 -660 Descending FlightAware
06:34AM -23.4480 -46.5200 78° East 147 169 2,900 -720 Descending FlightAware
06:34AM -23.4420 -46.4980 73° East 148 170 2,500 -960 Descending FlightAware
06:35AM -23.4380 -46.4850 71° East 147 169 2,200 -900 Descending FlightAware
06:35AM -23.4350 -46.4740 73° East 110 127 -6,600 Descending FlightAware